createdAt,value
2018-09-25T00:01:47.787Z,6.77
2018-09-25T00:04:21.946Z,5.10
2018-09-25T00:06:55.794Z,7.30
2018-09-25T00:09:29.583Z,6.10
2018-09-25T00:12:03.515Z,5.40
2018-09-25T00:14:37.760Z,5.27
2018-09-25T00:17:11.598Z,6.57
2018-09-25T00:19:45.482Z,5.67
2018-09-25T00:22:23.326Z,6.27
2018-09-25T00:24:57.106Z,5.53
2018-09-25T00:27:31.017Z,6.67
2018-09-25T00:30:04.894Z,5.97
2018-09-25T00:32:38.997Z,6.00
2018-09-25T00:35:12.978Z,7.37
2018-09-25T00:37:47.983Z,7.17
2018-09-25T00:40:22.015Z,5.37
2018-09-25T00:42:56.631Z,7.13
2018-09-25T00:45:31.364Z,6.13
2018-09-25T00:48:05.730Z,5.57
2018-09-25T00:50:39.653Z,6.07
2018-09-25T00:53:13.522Z,5.93
2018-09-25T00:55:47.727Z,8.00
2018-09-25T00:58:22.197Z,6.63
2018-09-25T01:00:55.879Z,7.07
2018-09-25T01:03:29.848Z,4.90
2018-09-25T01:06:03.728Z,5.97
2018-09-25T01:08:37.598Z,6.40
2018-09-25T01:11:12.053Z,5.83
2018-09-25T01:13:46.157Z,6.53
2018-09-25T01:16:20.203Z,6.43
2018-09-25T01:18:54.013Z,7.90
2018-09-25T01:21:28.155Z,8.77
2018-09-25T01:24:02.515Z,7.97
2018-09-25T01:26:36.447Z,6.53
2018-09-25T01:29:10.299Z,8.20
2018-09-25T01:31:44.199Z,7.63
2018-09-25T01:34:21.572Z,6.83
2018-09-25T01:36:55.762Z,5.70
2018-09-25T01:39:29.641Z,7.23
2018-09-25T01:42:03.519Z,5.27
2018-09-25T01:44:38.172Z,6.40
2018-09-25T01:47:12.821Z,7.40
2018-09-25T01:49:46.780Z,6.40
2018-09-25T01:52:20.644Z,5.67
2018-09-25T01:54:54.566Z,6.63
2018-09-25T01:57:28.482Z,5.53
2018-09-25T02:00:02.554Z,6.67
2018-09-25T02:02:36.462Z,6.63
2018-09-25T02:05:11.047Z,9.50
2018-09-25T02:07:44.987Z,7.30
2018-09-25T02:10:18.918Z,5.47
2018-09-25T02:12:53.398Z,6.83
2018-09-25T02:15:27.275Z,7.50
2018-09-25T02:18:01.710Z,5.47
2018-09-25T02:20:36.089Z,6.30
2018-09-25T02:23:10.199Z,6.43
2018-09-25T02:25:44.328Z,6.73
2018-09-25T02:28:18.663Z,7.00
2018-09-25T02:30:53.251Z,6.37
2018-09-25T02:33:27.211Z,6.30
2018-09-25T02:36:02.096Z,6.20
2018-09-25T02:38:35.915Z,6.87
2018-09-25T02:41:10.607Z,5.80
2018-09-25T02:43:44.557Z,7.23
2018-09-25T02:46:18.927Z,6.43
2018-09-25T02:48:52.516Z,10.20
2018-09-25T02:51:26.483Z,5.40
2018-09-25T02:54:01.700Z,5.60
2018-09-25T02:56:35.934Z,6.70
2018-09-25T02:59:09.906Z,7.70
2018-09-25T03:01:43.724Z,6.17
2018-09-25T03:04:18.111Z,6.93
2018-09-25T03:06:51.995Z,6.23
2018-09-25T03:09:26.471Z,5.80
2018-09-25T03:12:00.249Z,6.07
2018-09-25T03:14:34.878Z,5.67
2018-09-25T03:17:09.368Z,5.10
2018-09-25T03:19:43.062Z,6.00
2018-09-25T03:22:16.950Z,6.53
2018-09-25T03:24:50.886Z,5.57
2018-09-25T03:27:25.257Z,6.40
2018-09-25T03:29:59.486Z,4.33
2018-09-25T03:32:33.603Z,5.57
2018-09-25T03:35:07.566Z,6.20
2018-09-25T03:37:42.863Z,5.13
2018-09-25T03:40:17.648Z,6.00
2018-09-25T03:42:51.604Z,6.43
2018-09-25T03:45:25.660Z,6.37
2018-09-25T03:47:59.609Z,6.10
2018-09-25T03:50:33.711Z,5.40
2018-09-25T03:53:07.525Z,7.17
2018-09-25T03:55:41.630Z,6.40
2018-09-25T03:58:16.065Z,5.60
2018-09-25T04:00:49.966Z,5.60
2018-09-25T04:03:23.930Z,6.70
2018-09-25T04:05:58.567Z,7.20
2018-09-25T04:08:32.748Z,4.63
2018-09-25T04:11:06.703Z,6.87
2018-09-25T04:13:41.583Z,6.50
2018-09-25T04:16:15.587Z,4.67
2018-09-25T04:18:49.710Z,7.50
2018-09-25T04:21:23.658Z,6.50
2018-09-25T04:23:58.055Z,5.63
2018-09-25T04:26:32.021Z,6.50
2018-09-25T04:29:10.988Z,5.77
2018-09-25T04:31:45.232Z,4.27
2018-09-25T04:34:19.815Z,5.37
2018-09-25T04:36:54.088Z,4.43
2018-09-25T04:39:28.131Z,5.13
2018-09-25T04:42:01.979Z,7.60
2018-09-25T04:44:36.437Z,5.43
2018-09-25T04:47:10.579Z,7.00
2018-09-25T04:49:44.463Z,5.03
2018-09-25T04:52:18.359Z,6.30
2018-09-25T04:54:52.272Z,5.50
2018-09-25T04:57:26.208Z,3.87
2018-09-25T05:00:00.835Z,5.27
2018-09-25T05:02:35.089Z,4.47
2018-09-25T05:05:08.894Z,8.33
2018-09-25T05:07:42.979Z,6.63
2018-09-25T05:10:16.852Z,6.00
2018-09-25T05:12:50.313Z,5.87
2018-09-25T05:15:24.115Z,6.90
2018-09-25T05:17:58.170Z,5.77
2018-09-25T05:20:32.048Z,5.87
2018-09-25T05:23:06.003Z,5.57
2018-09-25T05:25:39.805Z,6.57
2018-09-25T05:28:15.128Z,5.23
2018-09-25T05:30:52.358Z,6.80
2018-09-25T05:33:28.276Z,4.73
2018-09-25T05:36:04.552Z,7.23
2018-09-25T05:38:39.641Z,6.33
2018-09-25T05:41:16.339Z,5.93
2018-09-25T05:43:52.871Z,6.33
2018-09-25T05:46:29.406Z,6.07
2018-09-25T05:49:03.707Z,5.77
2018-09-25T05:51:38.721Z,8.27
2018-09-25T05:54:14.681Z,5.20
2018-09-25T05:56:49.613Z,6.50
2018-09-25T05:59:24.026Z,5.30
2018-09-25T06:01:58.636Z,7.00
2018-09-25T06:04:32.906Z,5.40
2018-09-25T06:07:06.877Z,10.77
2018-09-25T06:09:40.853Z,7.93
2018-09-25T06:12:14.602Z,6.30
2018-09-25T06:14:48.750Z,7.83
2018-09-25T06:17:22.801Z,7.53
2018-09-25T06:19:56.642Z,5.20
2018-09-25T06:22:30.576Z,7.67
2018-09-25T06:25:04.445Z,5.83
2018-09-25T06:27:38.365Z,6.17
2018-09-25T06:30:12.848Z,6.47
2018-09-25T06:32:52.997Z,5.60
2018-09-25T06:35:27.202Z,7.73
2018-09-25T06:38:01.129Z,6.87
2018-09-25T06:40:35.289Z,6.53
2018-09-25T06:43:09.372Z,7.30
2018-09-25T06:45:43.232Z,8.47
2018-09-25T06:48:17.144Z,7.50
2018-09-25T06:50:50.838Z,8.20
2018-09-25T06:53:24.469Z,7.50
2018-09-25T06:55:58.391Z,5.87
2018-09-25T06:58:32.463Z,5.93
2018-09-25T07:01:06.168Z,7.63
2018-09-25T07:03:40.115Z,6.77
2018-09-25T07:06:16.677Z,7.27
2018-09-25T07:08:50.783Z,6.67
2018-09-25T07:11:24.722Z,7.60
2018-09-25T07:13:59.463Z,7.83
2018-09-25T07:16:33.386Z,7.83
2018-09-25T07:19:07.344Z,7.17
2018-09-25T07:21:41.351Z,6.90
2018-09-25T07:24:15.299Z,7.27
2018-09-25T07:26:50.257Z,7.93
2018-09-25T07:29:24.398Z,5.37
2018-09-25T07:31:58.447Z,7.87
2018-09-25T07:34:36.538Z,6.17
2018-09-25T07:37:10.495Z,7.33
2018-09-25T07:39:44.411Z,6.37
2018-09-25T07:42:18.601Z,5.93
2018-09-25T07:44:53.289Z,6.00
2018-09-25T07:47:27.090Z,6.37
2018-09-25T07:50:01.058Z,7.63
2018-09-25T07:52:35.050Z,5.87
2018-09-25T07:55:08.714Z,7.00
2018-09-25T07:57:42.470Z,5.90
2018-09-25T08:00:17.153Z,6.87
2018-09-25T08:02:51.342Z,7.23
2018-09-25T08:05:25.627Z,8.17
2018-09-25T08:08:00.176Z,6.40
2018-09-25T08:10:34.590Z,6.37
2018-09-25T08:13:08.645Z,7.20
2018-09-25T08:15:42.488Z,5.53
2018-09-25T08:18:16.502Z,5.00
2018-09-25T08:20:50.334Z,7.57
2018-09-25T08:23:25.007Z,6.67
2018-09-25T08:25:58.914Z,5.97
2018-09-25T08:28:32.727Z,5.40
2018-09-25T08:31:06.822Z,8.13
2018-09-25T08:33:40.663Z,8.93
2018-09-25T08:36:14.631Z,6.90
2018-09-25T08:38:48.667Z,6.93
2018-09-25T08:41:22.484Z,7.80
2018-09-25T08:43:56.580Z,8.67
2018-09-25T08:46:31.291Z,5.40
2018-09-25T08:49:05.728Z,5.83
2018-09-25T08:51:40.013Z,7.30
2018-09-25T08:54:14.208Z,6.40
2018-09-25T08:56:48.142Z,8.17
2018-09-25T08:59:22.034Z,8.33
2018-09-25T09:01:56.103Z,5.60
2018-09-25T09:04:30.006Z,4.67
2018-09-25T09:07:04.110Z,5.77
2018-09-25T09:09:37.987Z,6.03
2018-09-25T09:12:12.278Z,7.27
2018-09-25T09:14:46.814Z,6.73
2018-09-25T09:17:20.750Z,5.27
2018-09-25T09:19:54.641Z,7.07
2018-09-25T09:22:29.286Z,5.77
2018-09-25T09:25:03.386Z,5.57
2018-09-25T09:27:37.236Z,7.93
2018-09-25T09:30:10.769Z,7.30
2018-09-25T09:32:44.611Z,8.70
2018-09-25T09:35:19.234Z,6.37
2018-09-25T09:37:53.843Z,6.47
2018-09-25T09:40:27.563Z,9.97
2018-09-25T09:43:01.723Z,5.70
2018-09-25T09:45:36.531Z,5.27
2018-09-25T09:48:10.883Z,4.90
2018-09-25T09:50:44.322Z,7.20
2018-09-25T09:53:18.196Z,6.57
2018-09-25T09:55:51.891Z,8.27
2018-09-25T09:58:26.000Z,7.33
2018-09-25T10:00:59.924Z,8.40
2018-09-25T10:03:33.813Z,8.67
2018-09-25T10:06:07.724Z,6.07
2018-09-25T10:08:41.639Z,5.50
2018-09-25T10:11:15.095Z,8.23
2018-09-25T10:13:48.510Z,5.80
2018-09-25T10:16:22.003Z,6.53
2018-09-25T10:18:55.955Z,8.10
2018-09-25T10:21:30.530Z,6.07
2018-09-25T10:24:04.142Z,6.73
2018-09-25T10:26:37.519Z,5.40
2018-09-25T10:29:10.917Z,5.63
2018-09-25T10:31:44.284Z,6.07
2018-09-25T10:34:17.766Z,5.27
2018-09-25T10:36:51.275Z,4.27
2018-09-25T10:39:27.775Z,6.50
2018-09-25T10:42:01.682Z,6.33
2018-09-25T10:44:36.372Z,4.57
2018-09-25T10:47:10.575Z,6.93
2018-09-25T10:49:44.727Z,6.77
2018-09-25T10:52:18.849Z,5.43
2018-09-25T10:54:52.778Z,5.37
2018-09-25T10:57:26.460Z,4.77
2018-09-25T10:59:59.842Z,4.93
2018-09-25T11:02:33.944Z,5.43
2018-09-25T11:05:08.829Z,5.53
2018-09-25T11:07:43.229Z,4.43
2018-09-25T11:10:17.203Z,6.63
2018-09-25T11:12:51.490Z,4.87
2018-09-25T11:15:25.096Z,5.70
2018-09-25T11:17:58.457Z,4.80
2018-09-25T11:20:32.023Z,7.70
2018-09-25T11:23:06.726Z,4.07
2018-09-25T11:25:40.764Z,6.27
2018-09-25T11:28:15.002Z,4.57
2018-09-25T11:30:48.941Z,5.83
2018-09-25T11:33:23.062Z,4.03
2018-09-25T11:35:56.979Z,4.10
2018-09-25T11:38:31.057Z,4.90
2018-09-25T11:41:08.495Z,4.53
2018-09-25T11:43:42.633Z,5.57
2018-09-25T11:46:15.999Z,4.20
2018-09-25T11:48:49.351Z,3.57
2018-09-25T11:51:24.612Z,4.17
2018-09-25T11:53:58.399Z,4.97
2018-09-25T11:56:32.318Z,5.23
2018-09-25T11:59:06.172Z,6.13
2018-09-25T12:01:39.567Z,7.07
2018-09-25T12:04:12.969Z,5.17
2018-09-25T12:06:46.999Z,6.30
2018-09-25T12:09:20.615Z,5.23
2018-09-25T12:11:54.021Z,4.87
2018-09-25T12:14:27.513Z,6.90
2018-09-25T12:17:02.053Z,6.00
2018-09-25T12:19:35.962Z,5.07
2018-09-25T12:22:09.388Z,5.80
2018-09-25T12:24:43.287Z,6.37
2018-09-25T12:27:17.127Z,5.80
2018-09-25T12:29:50.771Z,4.10
2018-09-25T12:32:25.310Z,7.20
2018-09-25T12:34:59.249Z,5.67
2018-09-25T12:37:32.682Z,4.50
2018-09-25T12:40:06.092Z,5.87
2018-09-25T12:42:39.640Z,4.90
2018-09-25T12:45:13.632Z,5.83
2018-09-25T12:47:47.609Z,5.43
2018-09-25T12:50:21.229Z,3.87
2018-09-25T12:52:54.910Z,5.80
2018-09-25T12:55:28.294Z,3.70
2018-09-25T12:58:02.379Z,6.73
2018-09-25T13:00:36.320Z,7.30
2018-09-25T13:03:10.323Z,4.50
2018-09-25T13:05:46.180Z,5.87
2018-09-25T13:08:20.130Z,6.63
2018-09-25T13:10:54.355Z,6.97
2018-09-25T13:13:28.314Z,6.00
2018-09-25T13:16:02.468Z,5.20
2018-09-25T13:18:36.532Z,7.80
2018-09-25T13:21:10.677Z,4.03
2018-09-25T13:23:44.604Z,5.73
2018-09-25T13:26:19.226Z,5.87
2018-09-25T13:28:53.091Z,6.13
2018-09-25T13:31:27.855Z,5.70
2018-09-25T13:34:01.995Z,2.60
2018-09-25T13:36:35.839Z,6.57
2018-09-25T13:39:11.912Z,4.30
2018-09-25T13:41:46.030Z,5.73
2018-09-25T13:44:23.643Z,4.40
2018-09-25T13:46:58.174Z,6.33
2018-09-25T13:49:32.103Z,5.27
2018-09-25T13:52:06.287Z,4.20
2018-09-25T13:54:42.622Z,5.57
2018-09-25T13:57:18.166Z,7.10
2018-09-25T13:59:52.829Z,5.57
2018-09-25T14:02:26.879Z,4.67
2018-09-25T14:05:00.466Z,4.80
2018-09-25T14:07:35.031Z,4.00
2018-09-25T14:10:09.118Z,6.10
2018-09-25T14:12:43.795Z,4.23
2018-09-25T14:15:17.734Z,6.23
2018-09-25T14:17:51.880Z,4.70
2018-09-25T14:20:25.810Z,3.83
2018-09-25T14:22:59.756Z,6.40
2018-09-25T14:25:33.578Z,6.20
2018-09-25T14:28:07.741Z,4.53
2018-09-25T14:30:42.702Z,4.03
2018-09-25T14:33:16.659Z,4.70
2018-09-25T14:35:50.479Z,2.63
2018-09-25T14:38:24.597Z,5.53
2018-09-25T14:40:58.770Z,6.63
2018-09-25T14:43:32.714Z,4.23
2018-09-25T14:46:10.510Z,8.67
2018-09-25T14:48:44.577Z,6.97
2018-09-25T14:51:18.611Z,5.30
2018-09-25T14:53:52.370Z,4.40
2018-09-25T14:56:26.475Z,4.47
2018-09-25T14:59:01.047Z,4.13
2018-09-25T15:01:34.984Z,4.23
2018-09-25T15:04:09.815Z,5.00
2018-09-25T15:06:43.663Z,3.90
2018-09-25T15:09:17.761Z,4.47
2018-09-25T15:11:51.924Z,5.17
2018-09-25T15:14:25.811Z,4.40
2018-09-25T15:17:00.283Z,4.23
2018-09-25T15:19:34.428Z,3.93
2018-09-25T15:22:08.889Z,5.70
2018-09-25T15:24:42.613Z,4.10
2018-09-25T15:27:16.683Z,4.77
2018-09-25T15:29:50.744Z,5.33
2018-09-25T15:32:25.235Z,5.93
2018-09-25T15:34:59.224Z,7.20
2018-09-25T15:37:33.047Z,5.60
2018-09-25T15:40:06.964Z,4.93
2018-09-25T15:42:40.758Z,4.33
2018-09-25T15:45:15.053Z,5.87
2018-09-25T15:47:51.920Z,5.13
2018-09-25T15:50:25.820Z,5.17
2018-09-25T15:52:59.691Z,3.80
2018-09-25T15:55:33.849Z,7.33
2018-09-25T15:58:08.392Z,4.97
2018-09-25T16:00:42.495Z,6.13
2018-09-25T16:03:16.846Z,7.50
2018-09-25T16:05:50.998Z,5.70
2018-09-25T16:08:25.803Z,7.97
2018-09-25T16:10:59.694Z,4.17
2018-09-25T16:13:33.568Z,7.03
2018-09-25T16:16:07.492Z,7.93
2018-09-25T16:18:41.298Z,7.07
2018-09-25T16:21:15.524Z,5.23
2018-09-25T16:23:49.424Z,5.40
2018-09-25T16:26:23.341Z,5.67
2018-09-25T16:28:58.012Z,6.07
2018-09-25T16:31:32.318Z,5.73
2018-09-25T16:34:06.401Z,5.37
2018-09-25T16:36:40.354Z,6.73
2018-09-25T16:39:14.999Z,4.93
2018-09-25T16:41:49.226Z,6.47
2018-09-25T16:44:23.090Z,7.33
2018-09-25T16:46:57.851Z,4.60
2018-09-25T16:49:32.431Z,6.37
2018-09-25T16:52:06.731Z,6.40
2018-09-25T16:54:40.813Z,7.37
2018-09-25T16:57:14.743Z,5.40
2018-09-25T16:59:49.198Z,7.23
2018-09-25T17:03:52.104Z,4.67
2018-09-25T17:06:25.927Z,5.00
2018-09-25T17:09:00.078Z,7.23
2018-09-25T17:11:34.189Z,3.83
2018-09-25T17:14:08.845Z,5.77
2018-09-25T17:16:43.027Z,3.87
2018-09-25T17:19:17.958Z,4.70
2018-09-25T17:21:51.868Z,5.63
2018-09-25T17:24:26.549Z,4.70
2018-09-25T17:27:00.950Z,5.83
2018-09-25T17:29:35.142Z,3.77
2018-09-25T17:32:09.249Z,5.10
2018-09-25T17:34:43.583Z,5.80
2018-09-25T17:37:17.677Z,4.57
2018-09-25T17:39:53.274Z,5.20
2018-09-25T17:42:28.702Z,4.87
2018-09-25T17:45:04.127Z,6.47
2018-09-25T17:47:39.270Z,4.00
2018-09-25T17:50:17.839Z,4.17
2018-09-25T17:52:52.116Z,5.27
2018-09-25T17:55:36.030Z,5.07
2018-09-25T17:58:12.082Z,4.87
2018-09-25T18:00:46.482Z,5.00
2018-09-25T18:03:20.626Z,4.90
2018-09-25T18:05:54.739Z,6.40
2018-09-25T18:08:33.858Z,4.97
2018-09-25T18:11:08.653Z,4.97
2018-09-25T18:13:42.601Z,4.97
2018-09-25T18:16:17.594Z,5.43
2018-09-25T18:18:54.778Z,7.00
2018-09-25T18:21:32.496Z,5.30
2018-09-25T18:24:10.102Z,4.57
2018-09-25T18:26:50.498Z,5.03
2018-09-25T18:29:24.634Z,4.17
2018-09-25T18:31:58.562Z,6.67
2018-09-25T18:34:33.158Z,6.37
2018-09-25T18:37:07.211Z,5.33
2018-09-25T18:39:41.243Z,7.67
2018-09-25T18:42:15.453Z,6.33
2018-09-25T18:44:49.507Z,5.97
2018-09-25T18:47:24.422Z,5.77
2018-09-25T18:49:58.081Z,5.10
2018-09-25T18:52:35.890Z,3.67
2018-09-25T18:55:10.192Z,7.20
2018-09-25T18:57:44.406Z,10.07
2018-09-25T19:00:18.374Z,7.20
2018-09-25T19:02:52.456Z,6.50
2018-09-25T19:05:26.442Z,7.53
2018-09-25T19:08:00.487Z,8.93
2018-09-25T19:10:35.116Z,6.93
2018-09-25T19:13:09.219Z,9.97
2018-09-25T19:15:43.515Z,7.23
2018-09-25T19:18:17.687Z,6.67
2018-09-25T19:20:51.685Z,6.30
2018-09-25T19:23:25.698Z,13.17
2018-09-25T19:26:00.089Z,28.97
2018-09-25T19:28:34.941Z,26.73
2018-09-25T19:31:09.685Z,19.23
2018-09-25T19:33:43.696Z,11.37
2018-09-25T19:36:18.169Z,8.10
2018-09-25T19:38:52.599Z,10.80
2018-09-25T19:41:27.175Z,9.93
2018-09-25T19:44:01.440Z,8.93
2018-09-25T19:46:35.869Z,9.63
2018-09-25T19:49:13.278Z,12.90
2018-09-25T19:51:48.701Z,9.77
2018-09-25T19:54:29.575Z,9.53
2018-09-25T19:57:05.571Z,12.63
2018-09-25T19:59:40.411Z,15.27
2018-09-25T20:02:15.787Z,13.70
2018-09-25T20:04:54.785Z,14.07
2018-09-25T20:07:34.186Z,11.13
2018-09-25T20:10:11.241Z,10.40
2018-09-25T20:12:45.426Z,9.43
2018-09-25T20:15:19.520Z,8.03
2018-09-25T20:17:53.456Z,11.17
2018-09-25T20:20:27.771Z,9.03
2018-09-25T20:23:02.521Z,10.07
2018-09-25T20:25:37.204Z,9.90
2018-09-25T20:28:11.657Z,9.07
2018-09-25T20:30:54.869Z,8.63
2018-09-25T20:33:29.812Z,7.60
2018-09-25T20:36:04.012Z,9.00
2018-09-25T20:38:38.143Z,7.60
2018-09-25T20:41:13.068Z,9.03
2018-09-25T20:43:47.443Z,8.33
2018-09-25T20:46:21.954Z,6.30
2018-09-25T20:48:56.110Z,6.50
2018-09-25T20:51:30.072Z,8.37
2018-09-25T20:54:04.097Z,7.07
2018-09-25T20:56:39.434Z,6.90
2018-09-25T20:59:13.397Z,8.23
2018-09-25T21:01:47.595Z,7.37
2018-09-25T21:04:22.288Z,8.03
2018-09-25T21:06:56.282Z,7.40
2018-09-25T21:09:30.354Z,7.30
2018-09-25T21:12:04.059Z,5.43
2018-09-25T21:14:37.870Z,7.23
2018-09-25T21:17:11.823Z,6.00
2018-09-25T21:19:45.962Z,5.83
2018-09-25T21:22:19.862Z,7.60
2018-09-25T21:24:55.076Z,7.00
2018-09-25T21:27:29.259Z,6.80
2018-09-25T21:30:03.254Z,7.77
2018-09-25T21:32:37.792Z,6.60
2018-09-25T21:35:12.101Z,8.57
2018-09-25T21:37:46.046Z,6.83
2018-09-25T21:40:19.909Z,7.47
2018-09-25T21:42:54.353Z,6.67
2018-09-25T21:45:28.208Z,6.67
2018-09-25T21:48:02.897Z,6.20
2018-09-25T21:50:36.750Z,7.33
2018-09-25T21:53:10.685Z,8.87
2018-09-25T21:55:44.560Z,7.77
2018-09-25T21:58:24.626Z,6.93
2018-09-25T22:00:58.784Z,7.17
2018-09-25T22:03:32.698Z,6.97
2018-09-25T22:06:07.166Z,9.77
2018-09-25T22:08:41.096Z,7.83
2018-09-25T22:11:15.145Z,7.67
2018-09-25T22:13:49.487Z,5.93
2018-09-25T22:16:23.361Z,6.73
2018-09-25T22:18:57.994Z,7.13
2018-09-25T22:21:40.374Z,6.40
2018-09-25T22:24:14.907Z,7.37
2018-09-25T22:26:49.509Z,7.13
2018-09-25T22:29:23.423Z,6.23
2018-09-25T22:31:57.422Z,5.83
2018-09-25T22:34:31.613Z,5.87
2018-09-25T22:37:05.830Z,6.70
2018-09-25T22:39:39.973Z,8.93
2018-09-25T22:42:13.768Z,6.80
2018-09-25T22:44:47.980Z,5.70
2018-09-25T22:47:21.834Z,6.50
2018-09-25T22:49:55.739Z,6.57
2018-09-25T22:52:30.199Z,7.37
2018-09-25T22:55:04.175Z,9.10
2018-09-25T22:57:38.538Z,8.60
2018-09-25T23:00:16.181Z,7.13
2018-09-25T23:02:50.372Z,7.00
2018-09-25T23:05:24.017Z,6.10
2018-09-25T23:07:58.584Z,8.07
2018-09-25T23:10:33.133Z,7.23
2018-09-25T23:13:07.118Z,8.20
2018-09-25T23:15:41.179Z,6.80
2018-09-25T23:18:15.150Z,6.57
2018-09-25T23:20:49.215Z,9.00
2018-09-25T23:23:24.621Z,8.37
2018-09-25T23:25:58.694Z,6.63
2018-09-25T23:28:32.519Z,7.27
2018-09-25T23:31:07.189Z,8.23
2018-09-25T23:33:42.046Z,6.63
2018-09-25T23:36:30.770Z,7.40
2018-09-25T23:39:09.359Z,7.60
2018-09-25T23:41:47.607Z,7.17
2018-09-25T23:44:24.086Z,7.77
2018-09-25T23:47:00.296Z,8.30
2018-09-25T23:49:34.581Z,6.47
2018-09-25T23:52:11.305Z,8.23
2018-09-25T23:54:53.483Z,7.83
2018-09-25T23:57:41.599Z,8.43
